sensor_id;sensor_type;location;lat;lon;timestamp;P1;durP1;ratioP1;P2;durP2;ratioP2
60704;SDS011;46545;38.014;-7.874;2022-11-09T00:01:04;9.95;;;2.47;;
60704;SDS011;46545;38.014;-7.874;2022-11-09T00:03:04;9.32;;;2.78;;
60704;SDS011;46545;38.014;-7.874;2022-11-09T00:05:05;8.65;;;2.08;;
60704;SDS011;46545;38.014;-7.874;2022-11-09T00:07:06;8.30;;;2.03;;
60704;SDS011;46545;38.014;-7.874;2022-11-09T00:09:06;7.63;;;1.90;;
60704;SDS011;46545;38.014;-7.874;2022-11-09T00:11:09;6.78;;;1.98;;
60704;SDS011;46545;38.014;-7.874;2022-11-09T00:13:10;8.23;;;1.67;;
60704;SDS011;46545;38.014;-7.874;2022-11-09T00:15:10;6.63;;;1.70;;
60704;SDS011;46545;38.014;-7.874;2022-11-09T00:17:11;8.02;;;1.73;;
60704;SDS011;46545;38.014;-7.874;2022-11-09T00:19:12;3.38;;;1.33;;
60704;SDS011;46545;38.014;-7.874;2022-11-09T00:21:17;6.90;;;1.75;;
60704;SDS011;46545;38.014;-7.874;2022-11-09T00:23:18;8.57;;;1.45;;
60704;SDS011;46545;38.014;-7.874;2022-11-09T00:25:18;3.83;;;1.50;;
60704;SDS011;46545;38.014;-7.874;2022-11-09T00:27:19;7.90;;;1.60;;
60704;SDS011;46545;38.014;-7.874;2022-11-09T00:29:19;3.47;;;1.02;;
60704;SDS011;46545;38.014;-7.874;2022-11-09T00:31:22;4.85;;;1.27;;
60704;SDS011;46545;38.014;-7.874;2022-11-09T00:33:23;5.90;;;1.58;;
60704;SDS011;46545;38.014;-7.874;2022-11-09T00:35:24;11.55;;;1.55;;
60704;SDS011;46545;38.014;-7.874;2022-11-09T00:37:24;8.65;;;1.30;;
60704;SDS011;46545;38.014;-7.874;2022-11-09T00:39:25;4.28;;;1.27;;
60704;SDS011;46545;38.014;-7.874;2022-11-09T00:41:25;5.05;;;1.38;;
60704;SDS011;46545;38.014;-7.874;2022-11-09T00:43:28;6.15;;;1.40;;
60704;SDS011;46545;38.014;-7.874;2022-11-09T00:45:29;4.63;;;1.10;;
60704;SDS011;46545;38.014;-7.874;2022-11-09T00:47:31;6.90;;;1.83;;
60704;SDS011;46545;38.014;-7.874;2022-11-09T00:49:31;4.47;;;1.10;;
60704;SDS011;46545;38.014;-7.874;2022-11-09T00:51:32;5.20;;;1.75;;
60704;SDS011;46545;38.014;-7.874;2022-11-09T00:53:32;5.35;;;1.88;;
60704;SDS011;46545;38.014;-7.874;2022-11-09T00:55:33;5.78;;;1.27;;
60704;SDS011;46545;38.014;-7.874;2022-11-09T00:57:33;6.53;;;1.45;;
60704;SDS011;46545;38.014;-7.874;2022-11-09T00:59:34;4.97;;;1.67;;
60704;SDS011;46545;38.014;-7.874;2022-11-09T01:01:35;5.85;;;1.65;;
60704;SDS011;46545;38.014;-7.874;2022-11-09T01:03:35;2.47;;;1.58;;
60704;SDS011;46545;38.014;-7.874;2022-11-09T01:05:36;7.45;;;1.70;;
60704;SDS011;46545;38.014;-7.874;2022-11-09T01:07:38;6.70;;;1.73;;
60704;SDS011;46545;38.014;-7.874;2022-11-09T01:09:39;4.50;;;1.80;;
60704;SDS011;46545;38.014;-7.874;2022-11-09T01:11:39;3.95;;;1.58;;
60704;SDS011;46545;38.014;-7.874;2022-11-09T01:13:40;8.73;;;2.05;;
60704;SDS011;46545;38.014;-7.874;2022-11-09T01:15:41;11.52;;;2.28;;
60704;SDS011;46545;38.014;-7.874;2022-11-09T01:17:42;6.65;;;1.83;;
60704;SDS011;46545;38.014;-7.874;2022-11-09T01:19:43;9.45;;;1.77;;
60704;SDS011;46545;38.014;-7.874;2022-11-09T01:21:43;4.97;;;1.65;;
60704;SDS011;46545;38.014;-7.874;2022-11-09T01:23:43;6.90;;;2.13;;
60704;SDS011;46545;38.014;-7.874;2022-11-09T01:25:44;6.15;;;2.13;;
60704;SDS011;46545;38.014;-7.874;2022-11-09T01:27:45;4.60;;;2.47;;
60704;SDS011;46545;38.014;-7.874;2022-11-09T01:29:45;6.28;;;1.98;;
60704;SDS011;46545;38.014;-7.874;2022-11-09T01:31:46;4.43;;;2.78;;
60704;SDS011;46545;38.014;-7.874;2022-11-09T01:33:47;11.43;;;2.33;;
60704;SDS011;46545;38.014;-7.874;2022-11-09T01:35:48;7.05;;;2.40;;
60704;SDS011;46545;38.014;-7.874;2022-11-09T01:37:48;4.88;;;2.58;;
60704;SDS011;46545;38.014;-7.874;2022-11-09T01:39:49;10.80;;;2.50;;
60704;SDS011;46545;38.014;-7.874;2022-11-09T01:41:49;7.35;;;2.05;;
60704;SDS011;46545;38.014;-7.874;2022-11-09T01:44:03;6.00;;;2.47;;
60704;SDS011;46545;38.014;-7.874;2022-11-09T01:48:11;5.68;;;2.53;;
60704;SDS011;46545;38.014;-7.874;2022-11-09T01:50:12;6.88;;;2.50;;
60704;SDS011;46545;38.014;-7.874;2022-11-09T01:52:22;7.05;;;3.33;;
60704;SDS011;46545;38.014;-7.874;2022-11-09T01:54:27;6.13;;;2.30;;
60704;SDS011;46545;38.014;-7.874;2022-11-09T01:56:29;10.18;;;3.17;;
60704;SDS011;46545;38.014;-7.874;2022-11-09T01:58:39;6.38;;;2.88;;
60704;SDS011;46545;38.014;-7.874;2022-11-09T02:00:41;8.68;;;2.00;;
60704;SDS011;46545;38.014;-7.874;2022-11-09T02:03:08;4.07;;;2.10;;
60704;SDS011;46545;38.014;-7.874;2022-11-09T02:07:09;7.78;;;2.00;;
60704;SDS011;46545;38.014;-7.874;2022-11-09T02:11:20;7.80;;;2.28;;
60704;SDS011;46545;38.014;-7.874;2022-11-09T02:13:23;5.20;;;1.60;;
60704;SDS011;46545;38.014;-7.874;2022-11-09T02:15:24;9.60;;;1.88;;
60704;SDS011;46545;38.014;-7.874;2022-11-09T02:17:24;5.53;;;2.20;;
60704;SDS011;46545;38.014;-7.874;2022-11-09T02:19:25;4.65;;;1.85;;
60704;SDS011;46545;38.014;-7.874;2022-11-09T02:21:26;9.73;;;2.13;;
60704;SDS011;46545;38.014;-7.874;2022-11-09T02:23:28;6.32;;;3.35;;
60704;SDS011;46545;38.014;-7.874;2022-11-09T02:25:28;7.20;;;1.75;;
60704;SDS011;46545;38.014;-7.874;2022-11-09T02:27:29;6.22;;;1.77;;
60704;SDS011;46545;38.014;-7.874;2022-11-09T02:29:34;5.50;;;2.10;;
60704;SDS011;46545;38.014;-7.874;2022-11-09T02:31:38;5.90;;;1.63;;
60704;SDS011;46545;38.014;-7.874;2022-11-09T02:35:50;6.78;;;2.30;;
60704;SDS011;46545;38.014;-7.874;2022-11-09T02:37:51;8.07;;;2.20;;
60704;SDS011;46545;38.014;-7.874;2022-11-09T02:39:52;8.90;;;2.20;;
60704;SDS011;46545;38.014;-7.874;2022-11-09T02:43:54;6.40;;;1.75;;
60704;SDS011;46545;38.014;-7.874;2022-11-09T02:45:55;6.18;;;1.92;;
60704;SDS011;46545;38.014;-7.874;2022-11-09T02:47:56;7.25;;;2.00;;
60704;SDS011;46545;38.014;-7.874;2022-11-09T02:49:56;10.35;;;1.90;;
60704;SDS011;46545;38.014;-7.874;2022-11-09T02:51:57;7.35;;;1.42;;
60704;SDS011;46545;38.014;-7.874;2022-11-09T02:53:57;5.65;;;1.90;;
60704;SDS011;46545;38.014;-7.874;2022-11-09T02:55:58;7.65;;;2.08;;
60704;SDS011;46545;38.014;-7.874;2022-11-09T02:57:58;8.50;;;1.70;;
60704;SDS011;46545;38.014;-7.874;2022-11-09T02:59:59;3.88;;;1.70;;
60704;SDS011;46545;38.014;-7.874;2022-11-09T03:02:00;6.88;;;1.75;;
60704;SDS011;46545;38.014;-7.874;2022-11-09T03:04:03;14.88;;;2.10;;
60704;SDS011;46545;38.014;-7.874;2022-11-09T03:06:05;9.52;;;2.00;;
60704;SDS011;46545;38.014;-7.874;2022-11-09T03:08:06;6.38;;;1.92;;
60704;SDS011;46545;38.014;-7.874;2022-11-09T03:10:08;8.73;;;2.05;;
60704;SDS011;46545;38.014;-7.874;2022-11-09T03:12:09;8.45;;;1.90;;
60704;SDS011;46545;38.014;-7.874;2022-11-09T03:14:28;8.18;;;2.55;;
60704;SDS011;46545;38.014;-7.874;2022-11-09T03:16:31;10.13;;;2.17;;
60704;SDS011;46545;38.014;-7.874;2022-11-09T03:18:32;9.93;;;2.40;;
60704;SDS011;46545;38.014;-7.874;2022-11-09T03:20:32;12.68;;;2.20;;
60704;SDS011;46545;38.014;-7.874;2022-11-09T03:22:33;13.10;;;2.35;;
60704;SDS011;46545;38.014;-7.874;2022-11-09T03:24:34;8.80;;;1.95;;
60704;SDS011;46545;38.014;-7.874;2022-11-09T03:26:35;9.95;;;2.33;;
60704;SDS011;46545;38.014;-7.874;2022-11-09T03:28:36;4.68;;;2.20;;
60704;SDS011;46545;38.014;-7.874;2022-11-09T03:30:37;9.95;;;3.25;;
60704;SDS011;46545;38.014;-7.874;2022-11-09T03:32:38;12.57;;;2.42;;
60704;SDS011;46545;38.014;-7.874;2022-11-09T03:34:39;11.95;;;2.80;;
60704;SDS011;46545;38.014;-7.874;2022-11-09T03:36:41;7.72;;;2.65;;
60704;SDS011;46545;38.014;-7.874;2022-11-09T03:38:41;6.50;;;2.50;;
60704;SDS011;46545;38.014;-7.874;2022-11-09T03:40:42;12.40;;;2.75;;
60704;SDS011;46545;38.014;-7.874;2022-11-09T03:42:43;7.40;;;2.17;;
60704;SDS011;46545;38.014;-7.874;2022-11-09T03:44:45;12.48;;;2.53;;
60704;SDS011;46545;38.014;-7.874;2022-11-09T03:46:45;7.43;;;2.30;;
60704;SDS011;46545;38.014;-7.874;2022-11-09T03:48:46;12.68;;;3.30;;
60704;SDS011;46545;38.014;-7.874;2022-11-09T03:50:47;15.73;;;3.05;;
60704;SDS011;46545;38.014;-7.874;2022-11-09T03:52:47;13.77;;;3.25;;
60704;SDS011;46545;38.014;-7.874;2022-11-09T03:54:48;10.80;;;2.45;;
60704;SDS011;46545;38.014;-7.874;2022-11-09T03:56:48;11.48;;;2.30;;
60704;SDS011;46545;38.014;-7.874;2022-11-09T03:58:49;8.77;;;2.25;;
60704;SDS011;46545;38.014;-7.874;2022-11-09T04:00:49;7.43;;;2.33;;
60704;SDS011;46545;38.014;-7.874;2022-11-09T04:02:50;7.95;;;2.00;;
60704;SDS011;46545;38.014;-7.874;2022-11-09T04:04:50;12.70;;;2.70;;
60704;SDS011;46545;38.014;-7.874;2022-11-09T04:06:51;7.20;;;1.77;;
60704;SDS011;46545;38.014;-7.874;2022-11-09T04:08:51;8.02;;;2.08;;
60704;SDS011;46545;38.014;-7.874;2022-11-09T04:10:52;11.68;;;2.83;;
60704;SDS011;46545;38.014;-7.874;2022-11-09T04:12:53;6.35;;;1.98;;
60704;SDS011;46545;38.014;-7.874;2022-11-09T04:14:53;16.20;;;3.67;;
60704;SDS011;46545;38.014;-7.874;2022-11-09T04:16:54;9.85;;;2.35;;
60704;SDS011;46545;38.014;-7.874;2022-11-09T04:18:54;16.38;;;3.65;;
60704;SDS011;46545;38.014;-7.874;2022-11-09T04:20:56;7.18;;;2.70;;
60704;SDS011;46545;38.014;-7.874;2022-11-09T04:22:58;15.02;;;2.78;;
60704;SDS011;46545;38.014;-7.874;2022-11-09T04:24:59;10.15;;;2.42;;
60704;SDS011;46545;38.014;-7.874;2022-11-09T04:26:59;7.53;;;2.63;;
60704;SDS011;46545;38.014;-7.874;2022-11-09T04:29:00;7.65;;;2.20;;
60704;SDS011;46545;38.014;-7.874;2022-11-09T04:31:00;8.48;;;3.00;;
60704;SDS011;46545;38.014;-7.874;2022-11-09T04:33:01;6.10;;;2.03;;
60704;SDS011;46545;38.014;-7.874;2022-11-09T04:35:02;7.47;;;3.63;;
60704;SDS011;46545;38.014;-7.874;2022-11-09T04:37:03;7.95;;;3.15;;
60704;SDS011;46545;38.014;-7.874;2022-11-09T04:39:03;8.90;;;2.75;;
60704;SDS011;46545;38.014;-7.874;2022-11-09T04:41:04;6.53;;;2.70;;
60704;SDS011;46545;38.014;-7.874;2022-11-09T04:43:05;4.72;;;2.75;;
60704;SDS011;46545;38.014;-7.874;2022-11-09T04:45:06;12.38;;;3.80;;
60704;SDS011;46545;38.014;-7.874;2022-11-09T04:47:07;4.18;;;2.38;;
60704;SDS011;46545;38.014;-7.874;2022-11-09T04:49:07;5.93;;;2.75;;
60704;SDS011;46545;38.014;-7.874;2022-11-09T04:51:08;6.40;;;2.47;;
60704;SDS011;46545;38.014;-7.874;2022-11-09T04:53:12;6.38;;;2.33;;
60704;SDS011;46545;38.014;-7.874;2022-11-09T04:55:14;7.38;;;1.90;;
60704;SDS011;46545;38.014;-7.874;2022-11-09T04:57:15;8.45;;;2.67;;
60704;SDS011;46545;38.014;-7.874;2022-11-09T04:59:15;5.57;;;1.70;;
60704;SDS011;46545;38.014;-7.874;2022-11-09T05:01:16;7.28;;;2.05;;
60704;SDS011;46545;38.014;-7.874;2022-11-09T05:03:16;4.57;;;1.70;;
60704;SDS011;46545;38.014;-7.874;2022-11-09T05:05:17;8.02;;;3.30;;
60704;SDS011;46545;38.014;-7.874;2022-11-09T05:07:17;6.57;;;1.63;;
60704;SDS011;46545;38.014;-7.874;2022-11-09T05:09:18;5.50;;;1.60;;
60704;SDS011;46545;38.014;-7.874;2022-11-09T05:11:18;4.88;;;1.77;;
60704;SDS011;46545;38.014;-7.874;2022-11-09T05:13:19;5.13;;;2.20;;
60704;SDS011;46545;38.014;-7.874;2022-11-09T05:15:19;6.13;;;1.20;;
60704;SDS011;46545;38.014;-7.874;2022-11-09T05:17:20;4.60;;;1.35;;
60704;SDS011;46545;38.014;-7.874;2022-11-09T05:19:20;6.85;;;1.85;;
60704;SDS011;46545;38.014;-7.874;2022-11-09T05:21:21;8.00;;;2.20;;
60704;SDS011;46545;38.014;-7.874;2022-11-09T05:23:21;5.68;;;1.35;;
60704;SDS011;46545;38.014;-7.874;2022-11-09T05:25:40;5.57;;;1.98;;
60704;SDS011;46545;38.014;-7.874;2022-11-09T05:27:41;5.63;;;2.25;;
60704;SDS011;46545;38.014;-7.874;2022-11-09T05:29:41;6.50;;;3.20;;
60704;SDS011;46545;38.014;-7.874;2022-11-09T05:31:42;8.45;;;3.65;;
60704;SDS011;46545;38.014;-7.874;2022-11-09T05:33:47;9.38;;;4.30;;
60704;SDS011;46545;38.014;-7.874;2022-11-09T05:35:47;17.42;;;6.00;;
60704;SDS011;46545;38.014;-7.874;2022-11-09T05:37:48;12.82;;;5.55;;
60704;SDS011;46545;38.014;-7.874;2022-11-09T05:39:49;14.32;;;6.80;;
60704;SDS011;46545;38.014;-7.874;2022-11-09T05:41:49;14.18;;;6.85;;
60704;SDS011;46545;38.014;-7.874;2022-11-09T05:43:50;12.27;;;7.15;;
60704;SDS011;46545;38.014;-7.874;2022-11-09T05:45:50;19.63;;;7.75;;
60704;SDS011;46545;38.014;-7.874;2022-11-09T05:47:50;15.38;;;8.27;;
60704;SDS011;46545;38.014;-7.874;2022-11-09T05:49:51;16.65;;;7.53;;
60704;SDS011;46545;38.014;-7.874;2022-11-09T05:51:52;13.63;;;8.10;;
60704;SDS011;46545;38.014;-7.874;2022-11-09T05:53:52;20.75;;;9.20;;
60704;SDS011;46545;38.014;-7.874;2022-11-09T05:55:53;20.13;;;9.35;;
60704;SDS011;46545;38.014;-7.874;2022-11-09T05:57:54;17.83;;;9.10;;
60704;SDS011;46545;38.014;-7.874;2022-11-09T05:59:54;16.85;;;8.70;;
60704;SDS011;46545;38.014;-7.874;2022-11-09T06:01:55;19.40;;;9.68;;
60704;SDS011;46545;38.014;-7.874;2022-11-09T06:03:55;22.00;;;9.73;;
60704;SDS011;46545;38.014;-7.874;2022-11-09T06:05:58;21.95;;;10.05;;
60704;SDS011;46545;38.014;-7.874;2022-11-09T06:08:06;23.73;;;11.00;;
60704;SDS011;46545;38.014;-7.874;2022-11-09T06:10:07;21.52;;;11.43;;
60704;SDS011;46545;38.014;-7.874;2022-11-09T06:12:08;61.90;;;13.57;;
60704;SDS011;46545;38.014;-7.874;2022-11-09T06:14:08;56.92;;;12.65;;
60704;SDS011;46545;38.014;-7.874;2022-11-09T06:16:09;100.18;;;13.13;;
60704;SDS011;46545;38.014;-7.874;2022-11-09T06:18:09;55.03;;;10.35;;
60704;SDS011;46545;38.014;-7.874;2022-11-09T06:20:10;27.30;;;10.07;;
60704;SDS011;46545;38.014;-7.874;2022-11-09T06:22:10;19.02;;;8.93;;
60704;SDS011;46545;38.014;-7.874;2022-11-09T06:24:11;19.42;;;9.18;;
60704;SDS011;46545;38.014;-7.874;2022-11-09T06:26:12;21.13;;;7.60;;
60704;SDS011;46545;38.014;-7.874;2022-11-09T06:28:13;17.50;;;8.75;;
60704;SDS011;46545;38.014;-7.874;2022-11-09T06:30:13;15.98;;;8.45;;
60704;SDS011;46545;38.014;-7.874;2022-11-09T06:32:14;15.77;;;7.88;;
60704;SDS011;46545;38.014;-7.874;2022-11-09T06:34:14;14.90;;;7.47;;
60704;SDS011;46545;38.014;-7.874;2022-11-09T06:36:15;17.30;;;8.07;;
60704;SDS011;46545;38.014;-7.874;2022-11-09T06:38:15;14.25;;;6.70;;
60704;SDS011;46545;38.014;-7.874;2022-11-09T06:40:16;13.32;;;6.75;;
60704;SDS011;46545;38.014;-7.874;2022-11-09T06:42:16;12.73;;;7.10;;
60704;SDS011;46545;38.014;-7.874;2022-11-09T06:44:17;17.75;;;7.45;;
60704;SDS011;46545;38.014;-7.874;2022-11-09T06:46:18;14.82;;;8.23;;
60704;SDS011;46545;38.014;-7.874;2022-11-09T06:48:19;13.25;;;6.75;;
60704;SDS011;46545;38.014;-7.874;2022-11-09T06:50:20;16.27;;;7.05;;
60704;SDS011;46545;38.014;-7.874;2022-11-09T06:52:21;16.60;;;7.22;;
60704;SDS011;46545;38.014;-7.874;2022-11-09T06:54:22;14.13;;;6.53;;
60704;SDS011;46545;38.014;-7.874;2022-11-09T06:56:22;16.88;;;6.85;;
60704;SDS011;46545;38.014;-7.874;2022-11-09T06:58:23;16.10;;;6.47;;
60704;SDS011;46545;38.014;-7.874;2022-11-09T07:00:24;11.98;;;6.28;;
60704;SDS011;46545;38.014;-7.874;2022-11-09T07:02:25;15.68;;;5.50;;
60704;SDS011;46545;38.014;-7.874;2022-11-09T07:04:25;11.55;;;4.80;;
60704;SDS011;46545;38.014;-7.874;2022-11-09T07:06:26;11.13;;;4.63;;
60704;SDS011;46545;38.014;-7.874;2022-11-09T07:08:26;12.80;;;3.80;;
60704;SDS011;46545;38.014;-7.874;2022-11-09T07:10:27;10.80;;;4.18;;
60704;SDS011;46545;38.014;-7.874;2022-11-09T07:12:27;12.15;;;4.40;;
60704;SDS011;46545;38.014;-7.874;2022-11-09T07:14:28;14.20;;;4.25;;
60704;SDS011;46545;38.014;-7.874;2022-11-09T07:16:28;7.95;;;4.03;;
60704;SDS011;46545;38.014;-7.874;2022-11-09T07:18:29;15.23;;;4.88;;
60704;SDS011;46545;38.014;-7.874;2022-11-09T07:20:30;8.68;;;3.90;;
60704;SDS011;46545;38.014;-7.874;2022-11-09T07:22:30;12.05;;;4.50;;
60704;SDS011;46545;38.014;-7.874;2022-11-09T07:24:31;14.10;;;4.78;;
60704;SDS011;46545;38.014;-7.874;2022-11-09T07:26:31;12.45;;;4.22;;
60704;SDS011;46545;38.014;-7.874;2022-11-09T07:28:32;11.07;;;4.00;;
60704;SDS011;46545;38.014;-7.874;2022-11-09T07:30:33;6.80;;;3.45;;
60704;SDS011;46545;38.014;-7.874;2022-11-09T07:33:13;9.00;;;4.40;;
60704;SDS011;46545;38.014;-7.874;2022-11-09T07:35:14;8.25;;;5.05;;
60704;SDS011;46545;38.014;-7.874;2022-11-09T07:37:14;9.57;;;4.18;;
60704;SDS011;46545;38.014;-7.874;2022-11-09T07:39:15;14.65;;;5.55;;
60704;SDS011;46545;38.014;-7.874;2022-11-09T07:41:15;14.18;;;4.95;;
60704;SDS011;46545;38.014;-7.874;2022-11-09T07:43:16;12.93;;;6.20;;
60704;SDS011;46545;38.014;-7.874;2022-11-09T07:45:22;12.85;;;5.03;;
60704;SDS011;46545;38.014;-7.874;2022-11-09T07:47:22;14.77;;;5.13;;
60704;SDS011;46545;38.014;-7.874;2022-11-09T07:49:23;14.02;;;6.22;;
60704;SDS011;46545;38.014;-7.874;2022-11-09T07:51:23;14.63;;;6.97;;
60704;SDS011;46545;38.014;-7.874;2022-11-09T07:53:24;12.05;;;6.13;;
60704;SDS011;46545;38.014;-7.874;2022-11-09T07:55:25;17.52;;;7.75;;
60704;SDS011;46545;38.014;-7.874;2022-11-09T07:57:25;17.02;;;6.97;;
60704;SDS011;46545;38.014;-7.874;2022-11-09T07:59:26;15.60;;;7.90;;
60704;SDS011;46545;38.014;-7.874;2022-11-09T08:01:27;14.75;;;7.10;;
60704;SDS011;46545;38.014;-7.874;2022-11-09T08:03:27;18.17;;;7.13;;
60704;SDS011;46545;38.014;-7.874;2022-11-09T08:05:28;14.27;;;7.82;;
60704;SDS011;46545;38.014;-7.874;2022-11-09T08:07:39;15.73;;;7.07;;
60704;SDS011;46545;38.014;-7.874;2022-11-09T08:09:40;18.85;;;8.13;;
60704;SDS011;46545;38.014;-7.874;2022-11-09T08:11:40;15.10;;;8.35;;
60704;SDS011;46545;38.014;-7.874;2022-11-09T08:13:41;18.00;;;8.48;;
60704;SDS011;46545;38.014;-7.874;2022-11-09T08:15:41;21.67;;;8.20;;
60704;SDS011;46545;38.014;-7.874;2022-11-09T08:17:42;12.25;;;7.45;;
60704;SDS011;46545;38.014;-7.874;2022-11-09T08:19:42;15.68;;;8.90;;
60704;SDS011;46545;38.014;-7.874;2022-11-09T08:21:43;14.85;;;7.60;;
60704;SDS011;46545;38.014;-7.874;2022-11-09T08:23:43;16.70;;;7.72;;
60704;SDS011;46545;38.014;-7.874;2022-11-09T08:27:47;17.90;;;6.85;;
60704;SDS011;46545;38.014;-7.874;2022-11-09T08:29:48;12.05;;;7.03;;
60704;SDS011;46545;38.014;-7.874;2022-11-09T08:31:49;13.93;;;6.07;;
60704;SDS011;46545;38.014;-7.874;2022-11-09T08:33:50;8.98;;;5.43;;
60704;SDS011;46545;38.014;-7.874;2022-11-09T08:35:50;10.20;;;5.45;;
60704;SDS011;46545;38.014;-7.874;2022-11-09T08:37:51;17.67;;;5.72;;
60704;SDS011;46545;38.014;-7.874;2022-11-09T08:39:52;13.52;;;4.95;;
60704;SDS011;46545;38.014;-7.874;2022-11-09T08:41:52;13.38;;;6.22;;
60704;SDS011;46545;38.014;-7.874;2022-11-09T08:43:53;11.88;;;5.57;;
60704;SDS011;46545;38.014;-7.874;2022-11-09T08:45:54;13.35;;;5.75;;
60704;SDS011;46545;38.014;-7.874;2022-11-09T08:47:58;11.68;;;5.07;;
60704;SDS011;46545;38.014;-7.874;2022-11-09T08:50:01;10.80;;;4.15;;
60704;SDS011;46545;38.014;-7.874;2022-11-09T08:52:03;11.85;;;4.00;;
60704;SDS011;46545;38.014;-7.874;2022-11-09T08:54:04;11.23;;;3.50;;
60704;SDS011;46545;38.014;-7.874;2022-11-09T08:56:05;5.90;;;3.70;;
60704;SDS011;46545;38.014;-7.874;2022-11-09T08:58:06;8.20;;;3.72;;
60704;SDS011;46545;38.014;-7.874;2022-11-09T09:00:07;11.45;;;3.92;;
60704;SDS011;46545;38.014;-7.874;2022-11-09T09:02:08;9.30;;;3.03;;
60704;SDS011;46545;38.014;-7.874;2022-11-09T09:04:09;10.90;;;3.15;;
60704;SDS011;46545;38.014;-7.874;2022-11-09T09:06:09;11.95;;;2.92;;
60704;SDS011;46545;38.014;-7.874;2022-11-09T09:08:10;12.68;;;4.05;;
60704;SDS011;46545;38.014;-7.874;2022-11-09T09:10:12;12.10;;;3.90;;
60704;SDS011;46545;38.014;-7.874;2022-11-09T09:12:12;13.07;;;3.78;;
60704;SDS011;46545;38.014;-7.874;2022-11-09T09:14:13;10.55;;;2.85;;
60704;SDS011;46545;38.014;-7.874;2022-11-09T09:16:14;8.05;;;2.70;;
60704;SDS011;46545;38.014;-7.874;2022-11-09T09:18:15;14.43;;;3.08;;
60704;SDS011;46545;38.014;-7.874;2022-11-09T09:20:15;12.50;;;2.80;;
60704;SDS011;46545;38.014;-7.874;2022-11-09T09:22:19;9.60;;;2.20;;
60704;SDS011;46545;38.014;-7.874;2022-11-09T09:24:20;12.02;;;2.92;;
60704;SDS011;46545;38.014;-7.874;2022-11-09T09:26:20;13.80;;;3.65;;
60704;SDS011;46545;38.014;-7.874;2022-11-09T09:28:21;12.77;;;3.80;;
60704;SDS011;46545;38.014;-7.874;2022-11-09T09:30:21;12.82;;;2.80;;
60704;SDS011;46545;38.014;-7.874;2022-11-09T09:32:22;7.60;;;2.55;;
60704;SDS011;46545;38.014;-7.874;2022-11-09T09:34:23;16.85;;;3.15;;
60704;SDS011;46545;38.014;-7.874;2022-11-09T09:36:23;12.07;;;3.28;;
60704;SDS011;46545;38.014;-7.874;2022-11-09T09:38:24;12.85;;;2.65;;
60704;SDS011;46545;38.014;-7.874;2022-11-09T09:40:29;10.13;;;3.13;;
60704;SDS011;46545;38.014;-7.874;2022-11-09T09:42:33;12.80;;;2.28;;
60704;SDS011;46545;38.014;-7.874;2022-11-09T09:49:04;19.23;;;2.53;;
60704;SDS011;46545;38.014;-7.874;2022-11-09T09:51:11;10.88;;;2.58;;
60704;SDS011;46545;38.014;-7.874;2022-11-09T09:55:38;13.40;;;2.00;;
60704;SDS011;46545;38.014;-7.874;2022-11-09T09:57:40;14.77;;;2.35;;
60704;SDS011;46545;38.014;-7.874;2022-11-09T09:59:43;8.90;;;2.45;;
60704;SDS011;46545;38.014;-7.874;2022-11-09T10:01:44;12.32;;;3.88;;
60704;SDS011;46545;38.014;-7.874;2022-11-09T10:03:45;15.50;;;2.10;;
60704;SDS011;46545;38.014;-7.874;2022-11-09T10:07:56;10.02;;;2.50;;
60704;SDS011;46545;38.014;-7.874;2022-11-09T10:25:36;17.02;;;3.30;;
60704;SDS011;46545;38.014;-7.874;2022-11-09T10:27:40;12.63;;;3.38;;
60704;SDS011;46545;38.014;-7.874;2022-11-09T10:29:43;15.30;;;4.18;;
60704;SDS011;46545;38.014;-7.874;2022-11-09T10:31:46;14.20;;;3.80;;
60704;SDS011;46545;38.014;-7.874;2022-11-09T10:33:48;12.32;;;3.72;;
60704;SDS011;46545;38.014;-7.874;2022-11-09T10:38:01;8.57;;;3.25;;
60704;SDS011;46545;38.014;-7.874;2022-11-09T10:40:03;19.92;;;4.20;;
60704;SDS011;46545;38.014;-7.874;2022-11-09T10:42:24;15.20;;;3.45;;
60704;SDS011;46545;38.014;-7.874;2022-11-09T10:44:44;9.27;;;3.30;;
60704;SDS011;46545;38.014;-7.874;2022-11-09T10:47:06;9.93;;;2.97;;
60704;SDS011;46545;38.014;-7.874;2022-11-09T10:49:25;14.00;;;3.20;;
60704;SDS011;46545;38.014;-7.874;2022-11-09T10:51:44;10.00;;;3.00;;
60704;SDS011;46545;38.014;-7.874;2022-11-09T10:58:57;14.32;;;2.80;;
60704;SDS011;46545;38.014;-7.874;2022-11-09T11:01:27;10.70;;;3.13;;
60704;SDS011;46545;38.014;-7.874;2022-11-09T11:03:53;11.18;;;3.47;;
60704;SDS011;46545;38.014;-7.874;2022-11-09T11:08:36;14.98;;;2.67;;
60704;SDS011;46545;38.014;-7.874;2022-11-09T11:13:44;10.15;;;2.75;;
60704;SDS011;46545;38.014;-7.874;2022-11-09T11:16:12;11.82;;;3.40;;
60704;SDS011;46545;38.014;-7.874;2022-11-09T11:18:32;6.45;;;2.42;;
60704;SDS011;46545;38.014;-7.874;2022-11-09T11:23:43;14.90;;;2.60;;
60704;SDS011;46545;38.014;-7.874;2022-11-09T11:28:23;12.98;;;2.03;;
60704;SDS011;46545;38.014;-7.874;2022-11-09T11:30:44;13.93;;;2.28;;
60704;SDS011;46545;38.014;-7.874;2022-11-09T11:33:12;9.80;;;1.92;;
60704;SDS011;46545;38.014;-7.874;2022-11-09T11:35:33;12.85;;;2.28;;
60704;SDS011;46545;38.014;-7.874;2022-11-09T11:38:06;7.50;;;1.50;;
60704;SDS011;46545;38.014;-7.874;2022-11-09T11:40:33;10.25;;;2.00;;
60704;SDS011;46545;38.014;-7.874;2022-11-09T11:54:46;7.72;;;1.77;;
60704;SDS011;46545;38.014;-7.874;2022-11-09T12:24:00;9.23;;;1.60;;
60704;SDS011;46545;38.014;-7.874;2022-11-09T12:33:41;14.95;;;2.00;;
60704;SDS011;46545;38.014;-7.874;2022-11-09T12:36:07;11.80;;;1.67;;
60704;SDS011;46545;38.014;-7.874;2022-11-09T12:38:31;8.30;;;1.80;;
60704;SDS011;46545;38.014;-7.874;2022-11-09T12:43:19;7.20;;;1.55;;
60704;SDS011;46545;38.014;-7.874;2022-11-09T12:45:39;6.20;;;1.55;;
60704;SDS011;46545;38.014;-7.874;2022-11-09T12:48:00;7.35;;;1.80;;
60704;SDS011;46545;38.014;-7.874;2022-11-09T12:50:21;7.10;;;2.17;;
60704;SDS011;46545;38.014;-7.874;2022-11-09T12:52:43;5.82;;;1.60;;
60704;SDS011;46545;38.014;-7.874;2022-11-09T12:55:03;9.57;;;1.60;;
60704;SDS011;46545;38.014;-7.874;2022-11-09T12:57:23;5.88;;;1.30;;
60704;SDS011;46545;38.014;-7.874;2022-11-09T12:59:47;9.00;;;1.40;;
60704;SDS011;46545;38.014;-7.874;2022-11-09T13:02:13;7.20;;;1.45;;
60704;SDS011;46545;38.014;-7.874;2022-11-09T13:04:38;7.22;;;2.53;;
60704;SDS011;46545;38.014;-7.874;2022-11-09T13:09:22;5.90;;;1.65;;
60704;SDS011;46545;38.014;-7.874;2022-11-09T13:11:46;11.25;;;1.63;;
60704;SDS011;46545;38.014;-7.874;2022-11-09T13:16:40;7.53;;;1.73;;
60704;SDS011;46545;38.014;-7.874;2022-11-09T13:18:59;5.00;;;1.23;;
60704;SDS011;46545;38.014;-7.874;2022-11-09T13:23:40;8.75;;;1.63;;
60704;SDS011;46545;38.014;-7.874;2022-11-09T13:25:59;10.30;;;1.65;;
60704;SDS011;46545;38.014;-7.874;2022-11-09T13:30:46;8.23;;;1.75;;
60704;SDS011;46545;38.014;-7.874;2022-11-09T13:35:58;8.77;;;1.40;;
60704;SDS011;46545;38.014;-7.874;2022-11-09T13:38:16;8.05;;;1.95;;
60704;SDS011;46545;38.014;-7.874;2022-11-09T13:40:40;9.00;;;2.33;;
60704;SDS011;46545;38.014;-7.874;2022-11-09T13:45:30;7.30;;;2.05;;
60704;SDS011;46545;38.014;-7.874;2022-11-09T13:47:50;8.98;;;1.77;;
60704;SDS011;46545;38.014;-7.874;2022-11-09T13:50:19;26.90;;;2.38;;
60704;SDS011;46545;38.014;-7.874;2022-11-09T13:52:50;6.05;;;1.70;;
60704;SDS011;46545;38.014;-7.874;2022-11-09T13:55:12;12.52;;;1.83;;
60704;SDS011;46545;38.014;-7.874;2022-11-09T13:57:33;9.35;;;2.38;;
60704;SDS011;46545;38.014;-7.874;2022-11-09T13:59:52;9.63;;;2.75;;
60704;SDS011;46545;38.014;-7.874;2022-11-09T14:02:22;7.43;;;2.22;;
60704;SDS011;46545;38.014;-7.874;2022-11-09T14:04:42;10.40;;;2.85;;
60704;SDS011;46545;38.014;-7.874;2022-11-09T14:07:05;10.02;;;2.50;;
60704;SDS011;46545;38.014;-7.874;2022-11-09T14:09:24;9.18;;;1.95;;
60704;SDS011;46545;38.014;-7.874;2022-11-09T14:14:12;11.43;;;2.65;;
60704;SDS011;46545;38.014;-7.874;2022-11-09T14:16:43;7.05;;;1.73;;